Time;durP1;ratioP1;P1;durP2;ratioP2;P2;SDS_P1;SDS_P2;PMS_P1;PMS_P2;Temp;Humidity;BMP_temperature;BMP_pressure;BME280_temperature;BME280_humidity;BME280_pressure;Samples;Min_cycle;Max_cycle;Signal;HPM_P1;HPM_P2
2022/03/12 00:00:47;;;;;;;4.20;3.72;;;20.70;87.90;;;;;;4230054;28;20222;-71
2022/03/12 00:02:51;;;;;;;4.00;3.60;;;20.70;88.00;;;;;;4229857;28;20237;-72
2022/03/12 00:04:53;;;;;;;5.60;3.90;;;20.70;87.80;;;;;;4229822;28;20262;-72
2022/03/12 00:06:55;;;;;;;4.53;3.63;;;20.70;87.80;;;;;;4230180;28;20221;-72
2022/03/12 00:08:58;;;;;;;5.13;3.75;;;20.70;88.10;;;;;;4229547;28;20225;-72
2022/03/12 00:11:01;;;;;;;4.95;3.90;;;20.70;88.10;;;;;;4229918;28;20217;-72
2022/03/12 00:13:04;;;;;;;5.45;3.88;;;20.70;88.10;;;;;;4219566;28;20218;-72
2022/03/12 00:15:10;;;;;;;4.50;3.80;;;20.70;87.90;;;;;;4213117;28;20283;-72
2022/03/12 00:17:13;;;;;;;4.15;3.75;;;20.60;88.00;;;;;;4213199;28;20226;-72
2022/03/12 00:19:16;;;;;;;6.05;4.03;;;20.60;88.00;;;;;;4212810;28;20662;-72
2022/03/12 00:21:19;;;;;;;5.10;4.28;;;20.60;88.00;;;;;;4213119;28;20275;-72
2022/03/12 00:23:21;;;;;;;3.80;3.40;;;20.60;89.10;;;;;;4227657;28;20557;-72
2022/03/12 00:25:25;;;;;;;4.40;3.50;;;20.60;88.50;;;;;;4229659;28;20218;-72
2022/03/12 00:27:28;;;;;;;5.07;3.92;;;20.60;88.40;;;;;;4229334;28;20218;-72
2022/03/12 00:29:32;;;;;;;5.00;4.10;;;20.60;88.40;;;;;;4229863;28;20973;-72
2022/03/12 00:31:34;;;;;;;4.10;3.67;;;20.60;88.60;;;;;;4228930;28;20646;-72
2022/03/12 00:33:37;;;;;;;4.32;3.50;;;20.60;88.70;;;;;;4229451;28;20573;-72
2022/03/12 00:35:39;;;;;;;4.65;3.70;;;20.60;88.70;;;;;;4229674;28;20251;-72
2022/03/12 00:37:41;;;;;;;5.88;3.90;;;20.60;88.50;;;;;;4229396;28;20241;-72
2022/03/12 00:39:47;;;;;;;4.85;3.63;;;20.60;88.80;;;;;;4229727;28;20214;-72
2022/03/12 00:41:49;;;;;;;4.15;3.47;;;20.60;88.60;;;;;;4228577;28;20213;-72
2022/03/12 00:43:54;;;;;;;4.10;3.70;;;20.60;88.70;;;;;;4225421;28;20242;-72
2022/03/12 00:45:56;;;;;;;4.53;3.88;;;20.60;88.80;;;;;;4229641;28;20357;-72
2022/03/12 00:47:58;;;;;;;4.00;3.60;;;20.50;88.50;;;;;;4229493;28;20278;-71
2022/03/12 00:50:00;;;;;;;4.05;3.65;;;20.60;88.80;;;;;;4229332;28;20271;-72
2022/03/12 00:52:03;;;;;;;4.47;3.80;;;20.50;88.70;;;;;;4229232;28;20213;-72
2022/03/12 00:54:06;;;;;;;4.60;3.90;;;20.50;88.80;;;;;;4229103;28;20218;-72
2022/03/12 00:56:09;;;;;;;4.07;3.55;;;20.50;88.90;;;;;;4229573;28;20672;-72
2022/03/12 00:58:11;;;;;;;3.83;3.42;;;20.50;88.90;;;;;;4215354;28;20218;-72
2022/03/12 01:00:19;;;;;;;4.60;3.70;;;20.50;88.90;;;;;;4212349;28;20218;-72
2022/03/12 01:02:21;;;;;;;4.10;3.53;;;20.50;89.00;;;;;;4212736;28;20214;-72
2022/03/12 01:04:23;;;;;;;3.95;3.40;;;20.50;88.90;;;;;;4212559;28;20239;-71
2022/03/12 01:06:25;;;;;;;3.70;3.40;;;20.40;89.00;;;;;;4224758;28;20210;-71
2022/03/12 01:08:30;;;;;;;4.13;3.72;;;20.50;89.30;;;;;;4229062;28;20213;-72
2022/03/12 01:10:32;;;;;;;4.63;3.53;;;20.40;89.10;;;;;;4229279;28;20218;-71
2022/03/12 01:12:34;;;;;;;4.55;3.60;;;20.50;89.30;;;;;;4229604;28;20273;-72
2022/03/12 01:14:38;;;;;;;4.03;3.55;;;20.40;88.90;;;;;;4229551;28;20619;-72
2022/03/12 01:16:41;;;;;;;3.90;3.50;;;20.40;89.10;;;;;;4229213;28;20221;-72
2022/03/12 01:18:44;;;;;;;4.55;3.55;;;20.40;89.40;;;;;;4221432;28;20268;-72
2022/03/12 01:20:46;;;;;;;3.72;3.35;;;20.40;89.10;;;;;;4224963;28;20264;-72
2022/03/12 01:22:49;;;;;;;3.90;3.50;;;20.40;89.30;;;;;;4229021;28;20271;-72
2022/03/12 01:24:51;;;;;;;3.80;3.17;;;20.40;89.60;;;;;;4229057;28;20636;-72
2022/03/12 01:26:53;;;;;;;5.90;3.70;;;20.40;89.70;;;;;;4229668;28;20262;-72
2022/03/12 01:28:56;;;;;;;4.22;3.80;;;20.40;89.40;;;;;;4229159;28;20225;-71
2022/03/12 01:30:58;;;;;;;3.80;3.50;;;20.40;89.60;;;;;;4228841;28;20274;-71
2022/03/12 01:33:02;;;;;;;4.97;3.90;;;20.40;89.40;;;;;;4229438;28;20218;-72
2022/03/12 01:35:06;;;;;;;3.70;3.10;;;20.40;89.60;;;;;;4230986;28;20213;-72
2022/03/12 01:37:09;;;;;;;4.22;3.25;;;20.40;89.50;;;;;;4231908;28;20708;-72
2022/03/12 01:39:11;;;;;;;3.75;3.35;;;20.40;89.50;;;;;;4218803;28;20625;-72
2022/03/12 01:41:14;;;;;;;4.43;3.72;;;20.30;89.50;;;;;;4232724;28;20271;-72
2022/03/12 01:43:17;;;;;;;3.92;3.50;;;20.40;89.60;;;;;;4232146;28;20221;-72
2022/03/12 01:45:27;;;;;;;3.90;3.30;;;20.40;89.60;;;;;;4232180;28;20210;-72
2022/03/12 01:47:29;;;;;;;3.72;3.20;;;20.40;89.70;;;;;;4225804;28;20254;-72
2022/03/12 01:49:34;;;;;;;4.18;3.40;;;20.40;89.60;;;;;;4232105;28;20221;-72
2022/03/12 01:51:37;;;;;;;4.18;3.50;;;20.40;89.60;;;;;;4231998;28;20619;-72
2022/03/12 01:53:40;;;;;;;4.40;3.58;;;20.30;89.40;;;;;;4223222;28;20214;-72
2022/03/12 01:55:43;;;;;;;4.40;3.58;;;20.30;89.50;;;;;;4231939;28;20218;-72
2022/03/12 01:57:45;;;;;;;4.35;3.58;;;20.30;89.50;;;;;;4231820;28;20222;-72
2022/03/12 01:59:48;;;;;;;4.55;3.55;;;20.30;89.60;;;;;;4231963;28;20221;-72
2022/03/12 02:01:52;;;;;;;4.00;3.47;;;20.30;89.50;;;;;;4231748;28;20248;-72
2022/03/12 02:03:56;;;;;;;3.75;3.28;;;20.30;89.60;;;;;;4231839;28;20283;-71
2022/03/12 02:06:00;;;;;;;3.75;3.17;;;20.30;89.70;;;;;;4231633;28;20266;-72
2022/03/12 02:08:03;;;;;;;4.30;3.10;;;20.30;90.00;;;;;;4231586;28;20218;-72
2022/03/12 02:10:08;;;;;;;3.40;3.10;;;20.30;89.80;;;;;;4231661;28;20262;-72
2022/03/12 02:12:11;;;;;;;3.75;3.00;;;20.30;89.60;;;;;;4231725;28;20267;-72
2022/03/12 02:14:15;;;;;;;3.70;3.30;;;20.30;89.80;;;;;;4231160;28;20214;-72
2022/03/12 02:16:17;;;;;;;3.58;3.28;;;20.30;89.90;;;;;;4231709;27;20681;-72
2022/03/12 02:18:20;;;;;;;4.50;3.45;;;20.20;89.50;;;;;;4226835;28;20218;-72
2022/03/12 02:20:23;;;;;;;3.55;3.25;;;20.30;89.80;;;;;;4231935;28;20221;-72
2022/03/12 02:22:26;;;;;;;3.80;3.33;;;20.20;90.00;;;;;;4230107;27;20217;-72
2022/03/12 02:24:32;;;;;;;4.38;3.38;;;20.30;90.40;;;;;;4231245;28;20242;-71
2022/03/12 02:26:35;;;;;;;3.42;2.95;;;20.20;89.90;;;;;;4231336;28;20262;-72
2022/03/12 02:28:37;;;;;;;4.00;3.60;;;20.20;89.80;;;;;;4231853;28;20217;-72
2022/03/12 02:30:42;;;;;;;3.78;3.15;;;20.20;89.80;;;;;;4226805;28;20214;-72
2022/03/12 02:32:45;;;;;;;3.38;3.08;;;20.20;90.00;;;;;;4225219;28;20229;-72
2022/03/12 02:34:49;;;;;;;4.53;3.35;;;20.20;90.00;;;;;;4231762;28;20299;-72
2022/03/12 02:36:53;;;;;;;3.83;3.20;;;20.20;90.00;;;;;;4228188;28;20292;-72
2022/03/12 02:38:57;;;;;;;4.03;2.85;;;20.20;90.10;;;;;;4214615;28;20264;-72
2022/03/12 02:41:10;;;;;;;5.30;3.90;;;20.20;90.00;;;;;;4214424;28;20229;-72
2022/03/12 02:43:13;;;;;;;3.75;3.35;;;20.20;90.10;;;;;;4214073;28;20614;-72
2022/03/12 02:45:15;;;;;;;3.35;3.05;;;20.20;90.10;;;;;;4226189;28;20234;-72
2022/03/12 02:47:22;;;;;;;3.83;3.15;;;20.20;90.10;;;;;;4231169;28;20526;-72
2022/03/12 02:49:27;;;;;;;4.82;3.35;;;20.20;90.20;;;;;;4231246;28;20687;-72
2022/03/12 02:51:29;;;;;;;3.40;3.10;;;20.20;90.10;;;;;;4230825;28;20221;-72
2022/03/12 02:53:32;;;;;;;3.17;2.88;;;20.20;90.10;;;;;;4223505;28;20629;-72
2022/03/12 02:55:36;;;;;;;4.43;3.55;;;20.10;90.10;;;;;;4214202;28;20256;-72
2022/03/12 02:57:43;;;;;;;4.55;3.50;;;20.20;90.10;;;;;;4213924;28;20226;-72
2022/03/12 02:59:51;;;;;;;3.92;3.30;;;20.10;90.10;;;;;;4213805;28;20230;-72
2022/03/12 03:01:54;;;;;;;3.17;2.88;;;20.10;90.10;;;;;;4214254;28;20271;-71
2022/03/12 03:03:56;;;;;;;3.50;3.20;;;20.10;90.10;;;;;;4214323;28;20298;-72
2022/03/12 03:05:59;;;;;;;2.90;2.65;;;20.10;90.10;;;;;;4213805;28;20450;-72
2022/03/12 03:08:03;;;;;;;3.83;3.00;;;20.10;90.10;;;;;;4223066;28;20275;-72
2022/03/12 03:10:06;;;;;;;4.13;3.15;;;20.10;90.50;;;;;;4230708;28;20222;-72
2022/03/12 03:12:11;;;;;;;5.45;3.45;;;20.10;90.20;;;;;;4230786;28;20282;-72
2022/03/12 03:14:15;;;;;;;3.28;2.97;;;20.10;90.30;;;;;;4230167;28;20719;-72
2022/03/12 03:16:21;;;;;;;3.90;3.03;;;20.10;90.10;;;;;;4230504;28;20282;-72
2022/03/12 03:18:25;;;;;;;3.55;2.97;;;20.10;90.20;;;;;;4230420;28;20221;-72
2022/03/12 03:20:28;;;;;;;4.65;3.10;;;20.10;90.60;;;;;;4230310;28;20214;-72
2022/03/12 03:22:30;;;;;;;2.95;2.65;;;20.10;90.20;;;;;;4229998;28;20274;-72
2022/03/12 03:24:33;;;;;;;3.53;3.13;;;20.10;90.20;;;;;;4230146;28;20238;-72
2022/03/12 03:26:55;;;;;;;3.42;2.65;;;20.10;90.30;;;;;;4230397;28;20263;-72
2022/03/12 03:28:58;;;;;;;3.20;2.63;;;20.10;90.30;;;;;;4230031;28;20214;-72
2022/03/12 03:31:03;;;;;;;3.20;2.90;;;20.00;90.30;;;;;;4230046;28;20225;-72
2022/03/12 03:33:08;;;;;;;3.20;2.90;;;20.10;90.40;;;;;;4230092;28;20262;-72
2022/03/12 03:35:10;;;;;;;4.00;3.25;;;20.00;90.40;;;;;;4229758;28;20267;-72
2022/03/12 03:37:12;;;;;;;3.72;2.90;;;20.10;90.40;;;;;;4229878;28;20298;-72
2022/03/12 03:39:15;;;;;;;3.53;2.72;;;20.00;90.50;;;;;;4229825;28;20217;-72
2022/03/12 03:41:18;;;;;;;3.03;2.70;;;20.10;90.50;;;;;;4213172;28;20230;-72
2022/03/12 03:43:22;;;;;;;3.70;3.03;;;20.00;90.80;;;;;;4213307;28;20662;-72
2022/03/12 03:45:27;;;;;;;3.00;2.70;;;20.00;90.50;;;;;;4212766;28;20234;-71
2022/03/12 03:47:31;;;;;;;3.20;2.92;;;20.00;90.40;;;;;;4213285;28;20275;-71
2022/03/12 03:49:34;;;;;;;3.10;2.80;;;20.00;90.40;;;;;;4212882;28;20260;-72
2022/03/12 03:51:42;;;;;;;3.28;2.45;;;20.00;90.40;;;;;;4219840;28;20218;-72
2022/03/12 03:53:44;;;;;;;2.90;2.60;;;20.00;90.40;;;;;;4220445;28;20213;-72
2022/03/12 03:55:47;;;;;;;3.30;3.00;;;20.00;90.60;;;;;;4230025;28;20214;-72
2022/03/12 03:57:50;;;;;;;4.93;2.72;;;20.00;90.70;;;;;;4229607;28;20298;-71
2022/03/12 03:59:52;;;;;;;3.30;3.00;;;20.00;90.70;;;;;;4229857;28;20221;-72
2022/03/12 04:01:54;;;;;;;3.92;2.75;;;20.00;90.50;;;;;;4230392;28;20620;-72
2022/03/12 04:03:58;;;;;;;3.17;2.88;;;20.00;90.60;;;;;;4229916;28;20302;-71
2022/03/12 04:06:02;;;;;;;3.13;2.83;;;19.90;90.50;;;;;;4227267;28;20634;-71
2022/03/12 04:08:07;;;;;;;3.17;2.75;;;20.00;90.70;;;;;;4213204;28;20227;-72
2022/03/12 04:10:10;;;;;;;3.33;2.80;;;19.90;90.70;;;;;;4213025;28;20263;-71
2022/03/12 04:12:13;;;;;;;3.03;2.60;;;20.00;90.80;;;;;;4212701;28;20214;-71
2022/03/12 04:14:15;;;;;;;5.07;3.25;;;19.90;90.80;;;;;;4229340;28;20217;-72
2022/03/12 04:16:17;;;;;;;3.58;2.72;;;19.90;90.70;;;;;;4229715;28;20217;-72
2022/03/12 04:18:21;;;;;;;3.60;3.00;;;19.90;90.70;;;;;;4226506;28;20239;-72
2022/03/12 04:20:25;;;;;;;3.22;2.78;;;20.00;90.70;;;;;;4221319;28;20661;-72
2022/03/12 04:22:28;;;;;;;3.13;2.53;;;19.90;90.80;;;;;;4222432;28;20722;-72
2022/03/12 04:24:30;;;;;;;3.40;2.72;;;19.90;90.80;;;;;;4226355;28;20214;-72
2022/03/12 04:26:35;;;;;;;3.95;2.92;;;19.90;90.70;;;;;;4228936;28;20233;-72
2022/03/12 04:28:38;;;;;;;3.47;2.80;;;19.90;90.80;;;;;;4224039;28;20723;-72
2022/03/12 04:30:40;;;;;;;2.85;2.50;;;19.90;90.80;;;;;;4222653;28;20225;-72
2022/03/12 04:32:44;;;;;;;3.47;2.70;;;19.90;90.80;;;;;;4229973;28;20263;-72
2022/03/12 04:34:46;;;;;;;2.67;2.35;;;19.90;90.80;;;;;;4219598;28;20214;-72
2022/03/12 04:36:50;;;;;;;3.53;2.83;;;19.90;90.80;;;;;;4224441;28;20242;-72
2022/03/12 04:38:53;;;;;;;3.45;3.10;;;19.90;90.70;;;;;;4225739;28;20222;-71
2022/03/12 04:40:56;;;;;;;4.03;3.17;;;19.90;90.80;;;;;;4229510;28;20278;-71
2022/03/12 04:42:58;;;;;;;3.42;2.60;;;19.90;90.70;;;;;;4228803;28;20645;-72
2022/03/12 04:45:00;;;;;;;3.10;2.70;;;19.90;90.80;;;;;;4225669;28;20222;-71
2022/03/12 04:47:03;;;;;;;3.60;3.10;;;19.90;90.80;;;;;;4212871;28;20218;-72
2022/03/12 04:49:05;;;;;;;3.88;2.80;;;19.90;90.80;;;;;;4221192;28;20267;-71
2022/03/12 04:51:08;;;;;;;4.35;2.85;;;19.80;90.80;;;;;;4228358;28;20214;-72
2022/03/12 04:53:12;;;;;;;2.95;2.65;;;19.90;90.90;;;;;;4229241;28;20653;-71
2022/03/12 04:55:16;;;;;;;3.35;2.67;;;19.90;91.10;;;;;;4222542;28;20210;-71
2022/03/12 04:57:19;;;;;;;3.35;2.70;;;19.80;90.90;;;;;;4228391;28;20602;-72
2022/03/12 04:59:21;;;;;;;3.80;3.03;;;19.80;90.90;;;;;;4229406;28;20301;-72
2022/03/12 05:01:24;;;;;;;3.22;2.65;;;19.80;91.00;;;;;;4229155;28;20267;-72
2022/03/12 05:03:26;;;;;;;3.75;2.85;;;19.80;90.90;;;;;;4229281;28;20617;-72
2022/03/12 05:05:29;;;;;;;3.03;2.60;;;19.80;90.90;;;;;;4228952;28;20313;-72
2022/03/12 05:07:32;;;;;;;3.67;2.85;;;19.80;90.80;;;;;;4220495;28;20251;-71
2022/03/12 05:09:35;;;;;;;3.30;3.00;;;19.80;90.80;;;;;;4230454;28;20217;-71
2022/03/12 05:11:38;;;;;;;3.28;2.35;;;19.80;90.80;;;;;;4232394;28;20952;-72
2022/03/12 05:13:41;;;;;;;3.97;2.60;;;19.80;90.90;;;;;;4232603;28;20221;-72
2022/03/12 05:15:43;;;;;;;3.10;2.78;;;19.80;91.00;;;;;;4224228;28;20216;-71
2022/03/12 05:17:51;;;;;;;3.25;2.53;;;19.80;90.80;;;;;;4232251;28;20213;-71
2022/03/12 05:19:53;;;;;;;4.13;2.60;;;19.80;90.80;;;;;;4225844;28;20210;-72
2022/03/12 05:21:56;;;;;;;2.55;2.35;;;19.80;90.80;;;;;;4220944;28;20210;-72
2022/03/12 05:23:59;;;;;;;3.15;2.78;;;19.70;90.80;;;;;;4232606;28;20214;-72
2022/03/12 05:26:03;;;;;;;3.58;2.90;;;19.80;91.00;;;;;;4232119;28;20241;-72
2022/03/12 05:28:05;;;;;;;3.85;2.45;;;19.80;90.90;;;;;;4225022;28;20291;-72
2022/03/12 05:30:09;;;;;;;2.78;2.38;;;19.80;91.10;;;;;;4231941;28;20741;-72
2022/03/12 05:32:13;;;;;;;3.78;2.85;;;19.70;90.90;;;;;;4232072;28;20221;-72
2022/03/12 05:34:15;;;;;;;3.35;2.50;;;19.80;91.00;;;;;;4232071;28;20251;-72
2022/03/12 05:36:17;;;;;;;2.70;2.28;;;19.70;90.90;;;;;;4224970;28;20222;-72
2022/03/12 05:38:20;;;;;;;3.70;2.45;;;19.70;91.00;;;;;;4225706;28;20282;-72
2022/03/12 05:40:26;;;;;;;2.67;2.47;;;19.70;90.90;;;;;;4231793;28;20569;-72
2022/03/12 05:42:32;;;;;;;4.50;2.92;;;19.70;90.80;;;;;;4222826;28;20225;-72
2022/03/12 05:44:36;;;;;;;3.50;2.28;;;19.70;91.00;;;;;;4229608;28;20262;-72
2022/03/12 05:46:38;;;;;;;3.00;2.70;;;19.70;90.80;;;;;;4227893;28;20267;-72
2022/03/12 05:48:40;;;;;;;4.18;2.80;;;19.70;90.90;;;;;;4231443;28;20268;-72
2022/03/12 05:50:44;;;;;;;3.17;2.88;;;19.70;90.80;;;;;;4229728;28;20313;-71
2022/03/12 05:52:49;;;;;;;2.92;2.22;;;19.70;90.90;;;;;;4221687;28;20604;-72
2022/03/12 05:54:51;;;;;;;3.28;2.63;;;19.70;91.30;;;;;;4231611;28;20222;-72
2022/03/12 05:56:54;;;;;;;2.88;2.53;;;19.70;90.80;;;;;;4231720;28;20926;-72
2022/03/12 05:58:58;;;;;;;2.92;2.33;;;19.70;90.80;;;;;;4223189;28;20310;-72
2022/03/12 06:01:00;;;;;;;2.38;2.17;;;19.70;90.80;;;;;;4231775;28;20217;-72
2022/03/12 06:03:02;;;;;;;3.35;2.30;;;19.60;91.10;;;;;;4231823;28;20273;-72
2022/03/12 06:05:07;;;;;;;2.80;2.30;;;19.60;90.80;;;;;;4231742;28;20711;-71
2022/03/12 06:07:10;;;;;;;3.72;2.65;;;19.70;90.90;;;;;;4231572;28;20237;-72
2022/03/12 06:09:12;;;;;;;3.00;2.47;;;19.70;90.80;;;;;;4231105;28;20221;-72
2022/03/12 06:11:15;;;;;;;3.35;2.50;;;19.70;90.80;;;;;;4231530;28;20262;-71
2022/03/12 06:13:17;;;;;;;2.85;2.30;;;19.60;90.80;;;;;;4227694;28;20222;-72
2022/03/12 06:15:24;;;;;;;4.00;2.38;;;19.70;90.80;;;;;;4223834;28;20251;-71
2022/03/12 06:17:26;;;;;;;2.97;2.65;;;19.60;90.80;;;;;;4231473;28;20214;-72
2022/03/12 06:19:30;;;;;;;2.70;2.47;;;19.60;90.80;;;;;;4227178;28;20214;-72
2022/03/12 06:21:33;;;;;;;2.40;2.10;;;19.60;90.80;;;;;;4220420;28;20604;-72
2022/03/12 06:23:35;;;;;;;3.20;2.40;;;19.60;90.80;;;;;;4231525;28;20621;-72
2022/03/12 06:25:37;;;;;;;3.05;2.40;;;19.60;90.90;;;;;;4231620;28;20500;-71
2022/03/12 06:27:42;;;;;;;3.15;2.22;;;19.60;90.90;;;;;;4227543;28;20283;-72
2022/03/12 06:29:46;;;;;;;2.92;2.38;;;19.60;90.80;;;;;;4230887;28;20661;-71
2022/03/12 06:31:49;;;;;;;2.70;2.22;;;19.60;90.90;;;;;;4230851;28;20244;-71
2022/03/12 06:33:52;;;;;;;3.05;2.10;;;19.60;90.90;;;;;;4231009;28;21035;-71
2022/03/12 06:35:54;;;;;;;2.70;2.50;;;19.60;91.00;;;;;;4231424;28;20221;-72
2022/03/12 06:37:56;;;;;;;3.47;2.38;;;19.60;91.00;;;;;;4227300;28;20230;-72
2022/03/12 06:40:00;;;;;;;2.60;2.40;;;19.60;90.90;;;;;;4222636;28;20217;-72
2022/03/12 06:42:03;;;;;;;2.95;2.00;;;19.60;90.90;;;;;;4230509;28;20213;-72
2022/03/12 06:44:08;;;;;;;2.97;2.35;;;19.60;91.00;;;;;;4230649;28;20266;-72
2022/03/12 06:46:15;;;;;;;2.85;2.20;;;19.60;91.00;;;;;;4230629;28;20218;-72
2022/03/12 06:48:19;;;;;;;3.08;2.40;;;19.60;91.00;;;;;;4230868;28;20251;-71
2022/03/12 06:50:24;;;;;;;3.05;2.10;;;19.60;91.00;;;;;;4217416;28;20280;-72
2022/03/12 06:52:27;;;;;;;2.60;2.00;;;19.60;91.00;;;;;;4220426;28;20251;-72
2022/03/12 06:54:30;;;;;;;2.88;2.40;;;19.60;91.10;;;;;;4231127;28;20293;-72
2022/03/12 06:56:34;;;;;;;2.63;1.95;;;19.60;91.10;;;;;;4230838;28;20624;-72
2022/03/12 06:58:37;;;;;;;2.40;2.20;;;19.60;91.10;;;;;;4230307;28;20222;-72
2022/03/12 07:00:40;;;;;;;2.78;2.25;;;19.50;91.00;;;;;;4231109;28;20615;-71
2022/03/12 07:02:43;;;;;;;3.28;2.28;;;19.50;91.10;;;;;;4230760;28;20271;-71
2022/03/12 07:04:47;;;;;;;2.42;2.13;;;19.60;91.10;;;;;;4230368;28;20218;-72
2022/03/12 07:06:49;;;;;;;2.35;2.15;;;19.60;91.10;;;;;;4229932;28;20317;-72
2022/03/12 07:08:52;;;;;;;2.58;2.38;;;19.50;91.00;;;;;;4231173;28;20218;-72
2022/03/12 07:10:56;;;;;;;3.08;2.25;;;19.50;91.00;;;;;;4230710;28;20213;-72
2022/03/12 07:12:58;;;;;;;3.30;2.17;;;19.60;91.10;;;;;;4228920;28;20653;-71
2022/03/12 07:15:01;;;;;;;3.83;2.53;;;19.50;91.00;;;;;;4225823;28;20275;-72
2022/03/12 07:17:04;;;;;;;2.42;2.10;;;19.50;91.00;;;;;;4221800;28;20219;-71
2022/03/12 07:19:06;;;;;;;3.03;2.00;;;19.50;91.00;;;;;;4225307;28;20632;-71
2022/03/12 07:21:10;;;;;;;2.58;2.33;;;19.50;91.40;;;;;;4216262;28;20218;-72
2022/03/12 07:23:12;;;;;;;3.40;2.25;;;19.60;91.10;;;;;;4230388;28;20217;-71
2022/03/12 07:25:17;;;;;;;2.05;1.80;;;19.50;91.10;;;;;;4230491;28;20213;-72
2022/03/12 07:27:20;;;;;;;2.67;2.05;;;19.50;91.10;;;;;;4229918;28;20233;-72
2022/03/12 07:29:22;;;;;;;2.63;2.40;;;19.50;91.00;;;;;;4230187;28;20217;-71
2022/03/12 07:31:25;;;;;;;4.13;2.33;;;19.50;91.10;;;;;;4229886;28;20218;-72
2022/03/12 07:33:28;;;;;;;2.40;2.20;;;19.50;91.10;;;;;;4229527;28;20624;-72
2022/03/12 07:35:30;;;;;;;3.88;2.25;;;19.50;91.10;;;;;;4229998;28;20226;-72
2022/03/12 07:37:34;;;;;;;3.00;2.17;;;19.50;91.10;;;;;;4225004;28;20241;-72
2022/03/12 07:39:36;;;;;;;3.65;2.25;;;19.50;91.30;;;;;;4230263;28;20666;-72
2022/03/12 07:41:39;;;;;;;3.28;2.00;;;19.60;91.20;;;;;;4229864;28;20727;-72
2022/03/12 07:43:41;;;;;;;2.97;2.30;;;19.60;91.30;;;;;;4229727;28;20226;-72
2022/03/12 07:45:43;;;;;;;3.63;2.33;;;19.50;91.20;;;;;;4229996;28;20221;-72
2022/03/12 07:47:47;;;;;;;2.33;2.10;;;19.50;91.30;;;;;;4229800;28;20241;-71
2022/03/12 07:49:49;;;;;;;2.25;1.65;;;19.50;91.20;;;;;;4230159;28;20271;-71
2022/03/12 07:51:52;;;;;;;2.85;1.98;;;19.50;91.20;;;;;;4230004;28;20267;-72
2022/03/12 07:53:58;;;;;;;2.65;2.20;;;19.50;91.40;;;;;;4232380;27;20217;-71
2022/03/12 07:56:00;;;;;;;3.47;2.25;;;19.50;91.40;;;;;;4236605;27;20217;-71
2022/03/12 07:58:03;;;;;;;2.55;2.00;;;19.60;91.30;;;;;;4229960;28;20271;-71
2022/03/12 08:00:06;;;;;;;4.40;2.60;;;19.60;91.30;;;;;;4229851;28;20297;-71
2022/03/12 08:02:09;;;;;;;2.50;2.10;;;19.60;91.30;;;;;;4229435;28;20267;-71
2022/03/12 08:04:11;;;;;;;2.40;2.20;;;19.50;91.10;;;;;;4230087;28;20214;-72
2022/03/12 08:06:15;;;;;;;2.67;1.83;;;19.50;91.20;;;;;;4229830;28;20218;-71
2022/03/12 08:08:18;;;;;;;3.00;2.05;;;19.40;91.10;;;;;;4229433;28;20286;-72
2022/03/12 08:10:23;;;;;;;2.70;2.10;;;19.50;91.20;;;;;;4229905;28;20613;-71
2022/03/12 08:12:26;;;;;;;2.40;2.08;;;19.50;91.00;;;;;;4229348;28;20247;-72
2022/03/12 08:14:31;;;;;;;2.03;1.83;;;19.50;91.20;;;;;;4217094;28;20218;-72
2022/03/12 08:16:35;;;;;;;3.85;2.17;;;19.50;92.10;;;;;;4229844;28;20244;-72
2022/03/12 08:18:38;;;;;;;3.25;1.92;;;19.60;92.80;;;;;;4229649;28;20287;-71
2022/03/12 08:20:44;;;;;;;2.50;1.88;;;19.70;92.60;;;;;;4216931;28;20584;-71
2022/03/12 08:22:46;;;;;;;3.28;1.95;;;19.60;92.90;;;;;;4214973;28;20230;-72
2022/03/12 08:24:49;;;;;;;2.72;1.95;;;19.70;92.90;;;;;;4229716;28;20217;-71
2022/03/12 08:26:54;;;;;;;2.60;1.80;;;19.70;93.10;;;;;;4229798;28;20315;-71
2022/03/12 08:28:56;;;;;;;3.60;2.10;;;19.70;93.20;;;;;;4221377;28;20290;-71
2022/03/12 08:30:59;;;;;;;2.85;1.70;;;19.70;92.70;;;;;;4224032;28;20619;-71
2022/03/12 08:33:01;;;;;;;2.22;2.00;;;19.70;92.60;;;;;;4219497;28;20267;-72
2022/03/12 08:35:07;;;;;;;2.40;1.80;;;19.80;93.20;;;;;;4229618;28;20275;-72
2022/03/12 08:37:09;;;;;;;3.08;1.58;;;19.80;93.10;;;;;;4227720;28;20225;-72
2022/03/12 08:39:13;;;;;;;1.98;1.67;;;19.80;93.00;;;;;;4212672;28;20214;-72
2022/03/12 08:41:16;;;;;;;2.20;1.73;;;19.80;92.90;;;;;;4212742;28;20272;-72
2022/03/12 08:43:21;;;;;;;2.83;2.22;;;19.80;93.30;;;;;;4213551;28;20640;-72
2022/03/12 08:45:24;;;;;;;3.47;1.60;;;19.90;93.10;;;;;;4216187;28;20283;-72
2022/03/12 08:47:26;;;;;;;2.88;1.92;;;19.80;93.20;;;;;;4216045;28;20240;-72
2022/03/12 08:49:28;;;;;;;2.08;1.77;;;19.90;93.30;;;;;;4216083;28;20260;-72
2022/03/12 08:51:31;;;;;;;2.10;1.80;;;19.90;93.50;;;;;;4216087;28;20256;-71
2022/03/12 08:53:34;;;;;;;2.35;1.52;;;19.90;93.30;;;;;;4215985;28;20222;-71
2022/03/12 08:55:36;;;;;;;2.28;1.63;;;19.90;92.80;;;;;;4216066;28;20214;-71
2022/03/12 08:57:39;;;;;;;3.75;1.80;;;20.00;93.30;;;;;;4215940;28;20288;-72
2022/03/12 08:59:43;;;;;;;2.05;1.70;;;20.00;93.50;;;;;;4215702;28;20225;-71
2022/03/12 09:01:47;;;;;;;3.70;1.60;;;20.00;93.30;;;;;;4206443;28;20291;-71
2022/03/12 09:03:50;;;;;;;2.50;1.73;;;20.00;93.30;;;;;;4227418;28;20272;-72
2022/03/12 09:05:52;;;;;;;2.33;1.60;;;20.00;93.50;;;;;;4215295;28;20751;-72
2022/03/12 09:07:55;;;;;;;3.50;1.50;;;20.00;93.10;;;;;;4215171;28;20296;-72
2022/03/12 09:09:57;;;;;;;1.65;1.50;;;20.00;93.20;;;;;;4215997;28;20214;-72
2022/03/12 09:12:00;;;;;;;1.77;1.55;;;20.10;93.40;;;;;;4215922;28;20210;-71
2022/03/12 09:14:02;;;;;;;2.42;1.73;;;20.10;93.40;;;;;;4221553;28;20218;-72
2022/03/12 09:16:06;;;;;;;2.25;1.42;;;20.10;92.80;;;;;;4230287;28;20563;-71
2022/03/12 09:18:09;;;;;;;2.50;1.65;;;20.10;92.80;;;;;;4232365;28;20218;-71
2022/03/12 09:20:13;;;;;;;3.15;1.70;;;20.10;93.20;;;;;;4223827;28;20600;-71
2022/03/12 09:22:15;;;;;;;3.08;1.83;;;20.20;92.90;;;;;;4227439;28;20319;-72
2022/03/12 09:24:17;;;;;;;2.17;1.55;;;20.20;93.00;;;;;;4232278;28;20226;-71
2022/03/12 09:26:21;;;;;;;2.17;1.73;;;20.20;92.60;;;;;;4231944;28;20258;-71
2022/03/12 09:28:24;;;;;;;1.92;1.55;;;20.20;93.00;;;;;;4232038;28;20233;-71
2022/03/12 09:30:27;;;;;;;3.08;1.80;;;20.20;93.30;;;;;;4232128;28;20275;-71
2022/03/12 09:32:31;;;;;;;2.83;1.70;;;20.30;93.10;;;;;;4231611;28;20267;-72
2022/03/12 09:34:34;;;;;;;2.05;1.65;;;20.30;93.10;;;;;;4232130;28;20218;-71
2022/03/12 09:36:38;;;;;;;3.55;1.88;;;20.30;93.10;;;;;;4230221;28;20275;-71
2022/03/12 09:38:41;;;;;;;2.63;1.67;;;20.30;93.50;;;;;;4228602;28;20218;-71
2022/03/12 09:40:44;;;;;;;3.20;1.60;;;20.30;92.80;;;;;;4218596;28;20323;-72
2022/03/12 09:42:46;;;;;;;2.13;1.52;;;20.30;93.20;;;;;;4232024;28;20217;-71
2022/03/12 09:44:49;;;;;;;2.65;1.60;;;20.40;93.10;;;;;;4232055;28;20266;-71
2022/03/12 09:46:52;;;;;;;2.03;1.42;;;20.40;93.00;;;;;;4231776;28;20230;-71
2022/03/12 09:48:55;;;;;;;2.05;1.45;;;20.40;93.00;;;;;;4231532;28;20241;-71
2022/03/12 09:50:58;;;;;;;2.67;1.60;;;20.40;92.90;;;;;;4231654;28;20236;-72
2022/03/12 09:53:01;;;;;;;2.03;1.48;;;20.40;92.70;;;;;;4231827;28;20995;-71
2022/03/12 09:55:05;;;;;;;2.10;1.40;;;20.40;93.00;;;;;;4230959;28;20666;-71
2022/03/12 09:57:07;;;;;;;2.20;1.52;;;20.50;92.90;;;;;;4232078;28;20248;-71
2022/03/12 09:59:09;;;;;;;1.50;1.40;;;20.50;92.70;;;;;;4231378;28;20217;-72
2022/03/12 10:01:12;;;;;;;2.63;1.55;;;20.50;92.40;;;;;;4231304;28;20266;-71
2022/03/12 10:03:14;;;;;;;2.28;1.50;;;20.50;92.60;;;;;;4230862;28;20618;-72
2022/03/12 10:05:18;;;;;;;2.72;1.60;;;20.50;92.70;;;;;;4231867;28;20218;-71
2022/03/12 10:07:22;;;;;;;2.00;1.60;;;20.50;92.80;;;;;;4231690;28;20217;-71
2022/03/12 10:09:24;;;;;;;2.28;1.50;;;20.50;92.30;;;;;;4231619;28;20238;-71
2022/03/12 10:11:28;;;;;;;2.45;1.50;;;20.50;92.60;;;;;;4231238;28;20217;-71
2022/03/12 10:13:30;;;;;;;2.78;1.65;;;20.50;92.60;;;;;;4225580;28;20623;-71
2022/03/12 10:15:32;;;;;;;2.17;1.55;;;20.50;92.60;;;;;;4223948;28;20222;-71
2022/03/12 10:17:35;;;;;;;1.98;1.38;;;20.60;92.40;;;;;;4231480;28;20424;-71
2022/03/12 10:19:38;;;;;;;3.20;1.35;;;20.60;92.50;;;;;;4226028;28;20257;-71
2022/03/12 10:21:45;;;;;;;3.45;1.55;;;20.60;92.40;;;;;;4222091;28;20214;-71
2022/03/12 10:23:47;;;;;;;2.00;1.58;;;20.60;92.60;;;;;;4231539;28;20221;-71
2022/03/12 10:25:49;;;;;;;1.77;1.27;;;20.60;92.20;;;;;;4230823;28;20259;-72
2022/03/12 10:27:52;;;;;;;1.85;1.40;;;20.70;92.00;;;;;;4231328;28;20217;-72
2022/03/12 10:29:54;;;;;;;2.67;1.55;;;20.70;92.50;;;;;;4231227;28;20242;-71
2022/03/12 10:31:57;;;;;;;1.90;1.30;;;20.70;92.00;;;;;;4226418;28;20263;-71
2022/03/12 10:34:21;;;;;;;1.98;1.42;;;20.70;92.40;;;;;;4228612;28;20221;-72
2022/03/12 10:36:24;;;;;;;2.72;1.50;;;20.80;92.00;;;;;;4224948;28;20263;-71
2022/03/12 10:38:38;;;;;;;2.50;1.40;;;20.70;92.00;;;;;;4230944;27;20238;-71
2022/03/12 10:40:41;;;;;;;2.50;1.30;;;20.70;92.20;;;;;;4230914;28;20627;-71
2022/03/12 10:42:48;;;;;;;2.67;1.45;;;20.80;92.10;;;;;;4231037;28;20217;-71